createdAt,value
2022-11-08T00:08:00.586Z,13.00
2022-11-08T00:23:03.925Z,14.98
2022-11-08T00:38:05.810Z,10.82
2022-11-08T00:53:07.674Z,9.60
2022-11-08T01:08:10.457Z,11.85
2022-11-08T01:23:12.924Z,11.45
2022-11-08T01:38:15.300Z,9.88
2022-11-08T01:53:18.190Z,9.77
2022-11-08T02:08:26.953Z,9.15
2022-11-08T02:23:56.281Z,8.20
2022-11-08T02:38:58.386Z,16.33
2022-11-08T02:54:00.346Z,15.90
2022-11-08T03:09:02.315Z,14.20
2022-11-08T03:24:05.496Z,9.88
2022-11-08T03:39:07.407Z,17.20
2022-11-08T03:54:10.651Z,12.93
2022-11-08T04:09:12.609Z,9.43
2022-11-08T04:24:14.716Z,9.52
2022-11-08T04:39:16.711Z,10.07
2022-11-08T04:54:18.568Z,13.65
2022-11-08T05:09:20.525Z,14.85
2022-11-08T05:24:22.375Z,18.58
2022-11-08T05:39:27.227Z,12.95
2022-11-08T05:54:32.819Z,17.43
2022-11-08T06:09:34.660Z,14.85
2022-11-08T06:24:36.863Z,11.70
2022-11-08T06:39:38.699Z,13.93
2022-11-08T06:54:40.524Z,18.85
2022-11-08T07:09:43.847Z,21.10
2022-11-08T07:24:46.036Z,22.77
2022-11-08T07:39:47.898Z,14.52
2022-11-08T07:54:49.730Z,11.52
2022-11-08T08:09:51.616Z,9.00
2022-11-08T08:24:53.524Z,8.30
2022-11-08T08:39:55.447Z,7.50
2022-11-08T08:54:57.430Z,6.20
2022-11-08T09:09:59.308Z,5.63
2022-11-08T09:25:01.674Z,5.32
2022-11-08T09:40:03.913Z,6.70
2022-11-08T09:55:26.556Z,5.53
2022-11-08T10:11:05.982Z,4.13
2022-11-08T10:26:25.716Z,5.95
2022-11-08T10:41:48.894Z,6.00
2022-11-08T10:56:55.983Z,5.75
2022-11-08T11:12:01.293Z,5.25
2022-11-08T11:27:07.133Z,6.72
2022-11-08T11:42:39.324Z,5.15
2022-11-08T11:57:55.904Z,4.50
2022-11-08T12:13:00.519Z,4.20
2022-11-08T12:28:14.833Z,4.18
2022-11-08T12:43:55.694Z,4.07
2022-11-08T12:58:58.041Z,3.30
2022-11-08T13:14:00.742Z,5.93
2022-11-08T13:29:18.145Z,2.78
2022-11-08T13:44:55.167Z,3.45
2022-11-08T13:59:57.880Z,2.90
2022-11-08T14:15:26.217Z,4.85
2022-11-08T14:30:29.187Z,3.00
2022-11-08T14:45:31.044Z,7.32
2022-11-08T15:00:33.519Z,6.63
2022-11-08T15:15:35.444Z,6.85
2022-11-08T15:30:39.904Z,6.05
2022-11-08T15:45:53.615Z,5.18
2022-11-08T16:00:56.802Z,7.47
2022-11-08T16:15:59.965Z,7.60
2022-11-08T16:31:03.377Z,7.88
2022-11-08T16:46:07.386Z,13.82
2022-11-08T17:01:16.194Z,13.65
2022-11-08T17:16:18.931Z,10.90
2022-11-08T17:31:20.812Z,11.50
2022-11-08T17:46:22.974Z,15.02
2022-11-08T18:01:25.045Z,17.05
2022-11-08T18:16:27.100Z,21.00
2022-11-08T18:31:30.119Z,20.95
2022-11-08T18:46:41.944Z,27.27
2022-11-08T19:01:45.359Z,28.92
2022-11-08T19:16:47.360Z,25.40
2022-11-08T19:31:49.211Z,28.88
2022-11-08T19:46:51.372Z,29.45
2022-11-08T20:01:53.741Z,30.40
2022-11-08T20:16:56.174Z,31.95
2022-11-08T20:32:00.413Z,28.88
2022-11-08T20:47:06.313Z,35.55
2022-11-08T21:02:11.785Z,26.23
2022-11-08T21:17:22.033Z,33.78
2022-11-08T21:32:24.436Z,28.95
2022-11-08T21:47:26.317Z,27.60
2022-11-08T22:02:28.246Z,28.83
2022-11-08T22:17:30.211Z,26.00
2022-11-08T22:32:32.133Z,25.65
2022-11-08T22:47:34.031Z,27.02
2022-11-08T23:02:36.081Z,26.63
2022-11-08T23:17:38.043Z,27.85
2022-11-08T23:32:45.054Z,30.45
2022-11-08T23:47:47.024Z,32.53
